createdAt,value
2022-11-26T00:02:19.455Z,8.97
2022-11-26T00:04:47.964Z,9.20
2022-11-26T00:07:21.596Z,8.40
2022-11-26T00:09:51.599Z,8.60
2022-11-26T00:12:21.491Z,9.17
2022-11-26T00:14:49.838Z,9.23
2022-11-26T00:17:19.078Z,9.47
2022-11-26T00:19:47.766Z,9.17
2022-11-26T00:22:24.760Z,9.17
2022-11-26T00:24:55.504Z,9.00
2022-11-26T00:27:27.589Z,9.80
2022-11-26T00:29:57.073Z,9.27
2022-11-26T00:32:27.175Z,8.30
2022-11-26T00:34:55.521Z,8.50
2022-11-26T00:37:27.130Z,8.83
2022-11-26T00:39:57.844Z,8.47
2022-11-26T00:42:26.249Z,7.60
2022-11-26T00:44:54.557Z,8.73
2022-11-26T00:47:22.790Z,8.50
2022-11-26T00:49:51.065Z,9.17
2022-11-26T00:52:28.531Z,10.35
2022-11-26T00:54:58.272Z,9.13
2022-11-26T00:57:26.739Z,9.07
2022-11-26T00:59:54.995Z,9.10
2022-11-26T01:02:23.235Z,8.43
2022-11-26T01:04:51.473Z,10.13
2022-11-26T01:07:19.844Z,8.30
2022-11-26T01:09:48.813Z,8.80
2022-11-26T01:12:18.449Z,8.90
2022-11-26T01:14:46.668Z,9.30
2022-11-26T01:17:14.912Z,8.77
2022-11-26T01:19:43.132Z,8.23
2022-11-26T01:22:21.435Z,9.07
2022-11-26T01:24:50.421Z,9.07
2022-11-26T01:27:22.955Z,10.03
2022-11-26T01:29:51.270Z,9.63
2022-11-26T01:32:19.491Z,9.20
2022-11-26T01:34:47.691Z,9.93
2022-11-26T01:37:16.147Z,9.30
2022-11-26T01:39:44.478Z,9.10
2022-11-26T01:42:27.608Z,9.27
2022-11-26T01:44:55.916Z,8.03
2022-11-26T01:47:26.514Z,9.73
2022-11-26T01:50:42.439Z,7.97
2022-11-26T01:53:14.839Z,9.67
2022-11-26T01:55:49.332Z,8.90
2022-11-26T01:58:24.458Z,8.30
2022-11-26T02:00:53.071Z,10.48
2022-11-26T02:03:21.851Z,8.47
2022-11-26T02:05:57.144Z,9.03
2022-11-26T02:08:27.685Z,9.33
2022-11-26T02:10:55.948Z,9.37
2022-11-26T02:13:26.510Z,10.30
2022-11-26T02:16:04.192Z,10.10
2022-11-26T02:18:39.065Z,8.97
2022-11-26T02:21:11.246Z,9.07
2022-11-26T02:24:11.327Z,9.77
2022-11-26T02:27:10.978Z,9.10
2022-11-26T02:30:03.586Z,9.27
2022-11-26T02:32:39.478Z,9.23
2022-11-26T02:35:14.540Z,10.13
2022-11-26T02:37:48.517Z,9.30
2022-11-26T02:40:17.034Z,10.23
2022-11-26T02:42:45.338Z,10.37
2022-11-26T02:45:19.140Z,10.13
2022-11-26T02:47:50.530Z,10.23
2022-11-26T02:50:23.315Z,11.10
2022-11-26T02:52:54.564Z,10.43
2022-11-26T02:55:28.152Z,11.73
2022-11-26T02:57:57.526Z,11.00
2022-11-26T03:00:27.539Z,11.73
2022-11-26T03:03:01.671Z,10.83
2022-11-26T03:05:34.336Z,10.60
2022-11-26T03:08:04.252Z,11.00
2022-11-26T03:10:32.977Z,11.43
2022-11-26T03:13:01.268Z,11.30
2022-11-26T03:15:30.918Z,10.07
2022-11-26T03:17:59.418Z,11.80
2022-11-26T03:20:27.672Z,10.47
2022-11-26T03:22:56.028Z,12.13
2022-11-26T03:25:24.237Z,11.10
2022-11-26T03:27:52.497Z,11.57
2022-11-26T03:30:20.809Z,12.03
2022-11-26T03:32:50.477Z,11.50
2022-11-26T03:35:18.862Z,11.23
2022-11-26T03:37:47.169Z,11.53
2022-11-26T03:40:16.870Z,12.53
2022-11-26T03:42:45.497Z,11.03
2022-11-26T03:45:15.286Z,11.70
2022-11-26T03:47:43.573Z,13.07
2022-11-26T03:50:13.809Z,10.27
2022-11-26T03:52:42.098Z,12.70
2022-11-26T03:55:10.854Z,11.57
2022-11-26T03:57:39.104Z,12.10
2022-11-26T04:00:09.281Z,13.97
2022-11-26T04:02:38.015Z,12.70
2022-11-26T04:05:07.148Z,11.93
2022-11-26T04:07:36.910Z,12.13
2022-11-26T04:10:05.790Z,12.80
2022-11-26T04:12:34.088Z,11.87
2022-11-26T04:15:02.345Z,12.50
2022-11-26T04:17:30.546Z,12.17
2022-11-26T04:19:58.796Z,12.80
2022-11-26T04:22:27.033Z,13.20
2022-11-26T04:24:56.726Z,11.27
2022-11-26T04:27:25.864Z,11.33
2022-11-26T04:29:54.137Z,11.63
2022-11-26T04:32:22.429Z,13.53
2022-11-26T04:34:50.681Z,12.77
2022-11-26T04:37:18.975Z,12.03
2022-11-26T04:39:47.337Z,12.47
2022-11-26T04:42:17.049Z,12.80
2022-11-26T04:44:45.333Z,12.97
2022-11-26T04:47:13.582Z,11.83
2022-11-26T04:49:41.868Z,12.83
2022-11-26T04:52:10.171Z,13.47
2022-11-26T04:54:38.703Z,12.10
2022-11-26T04:57:07.122Z,12.67
2022-11-26T04:59:36.799Z,12.87
2022-11-26T05:02:05.396Z,13.43
2022-11-26T05:04:33.801Z,13.33
2022-11-26T05:07:02.046Z,12.30
2022-11-26T05:09:30.335Z,13.10
2022-11-26T05:11:58.656Z,13.60
2022-11-26T05:14:27.034Z,13.47
2022-11-26T05:16:56.725Z,13.43
2022-11-26T05:19:25.129Z,13.23
2022-11-26T05:21:53.383Z,12.30
2022-11-26T05:24:21.651Z,12.43
2022-11-26T05:26:57.099Z,13.57
2022-11-26T05:29:25.962Z,14.85
2022-11-26T05:31:54.325Z,13.73
2022-11-26T05:34:23.997Z,15.17
2022-11-26T05:36:52.228Z,14.43
2022-11-26T05:39:21.145Z,13.73
2022-11-26T05:41:49.517Z,13.53
2022-11-26T05:44:17.769Z,12.17
2022-11-26T05:46:46.019Z,13.03
2022-11-26T05:49:14.324Z,14.10
2022-11-26T05:51:43.913Z,13.37
2022-11-26T05:54:14.437Z,14.07
2022-11-26T05:56:43.634Z,16.42
2022-11-26T05:59:12.320Z,13.67
2022-11-26T06:01:40.877Z,14.13
2022-11-26T06:04:09.186Z,13.33
2022-11-26T06:06:37.596Z,14.37
2022-11-26T06:09:07.301Z,13.40
2022-11-26T06:11:35.562Z,14.50
2022-11-26T06:14:03.932Z,15.13
2022-11-26T06:16:32.222Z,16.00
2022-11-26T06:19:00.497Z,14.60
2022-11-26T06:21:28.811Z,14.60
2022-11-26T06:23:59.688Z,15.77
2022-11-26T06:26:29.622Z,15.77
2022-11-26T06:28:57.902Z,16.60
2022-11-26T06:31:29.019Z,16.90
2022-11-26T06:33:57.727Z,17.43
2022-11-26T06:36:26.184Z,16.70
2022-11-26T06:38:54.479Z,16.83
2022-11-26T06:41:23.155Z,19.50
2022-11-26T06:43:53.087Z,16.27
2022-11-26T06:46:21.467Z,17.30
2022-11-26T06:48:49.716Z,17.57
2022-11-26T06:51:20.586Z,17.23
2022-11-26T06:53:49.194Z,15.23
2022-11-26T06:56:19.326Z,16.80
2022-11-26T06:58:47.844Z,15.40
2022-11-26T07:01:19.423Z,17.57
2022-11-26T07:03:48.136Z,17.63
2022-11-26T07:06:21.354Z,19.15
2022-11-26T07:08:50.520Z,18.17
2022-11-26T07:11:19.740Z,17.73
2022-11-26T07:13:48.203Z,21.70
2022-11-26T07:16:18.262Z,25.00
2022-11-26T07:18:50.099Z,28.63
2022-11-26T07:21:18.767Z,30.07
2022-11-26T07:23:47.811Z,30.93
2022-11-26T07:26:17.196Z,33.07
2022-11-26T07:28:47.275Z,31.47
2022-11-26T07:31:19.863Z,37.13
2022-11-26T07:33:49.017Z,27.60
2022-11-26T07:36:19.485Z,25.23
2022-11-26T07:38:48.732Z,21.93
2022-11-26T07:41:19.465Z,18.90
2022-11-26T07:43:48.243Z,17.90
2022-11-26T07:46:20.140Z,15.53
2022-11-26T07:48:48.477Z,16.07
2022-11-26T07:51:21.861Z,13.63
2022-11-26T07:53:50.523Z,15.00
2022-11-26T07:56:19.540Z,15.43
2022-11-26T07:58:48.336Z,17.50
2022-11-26T08:01:19.574Z,16.37
2022-11-26T08:03:49.793Z,16.83
2022-11-26T08:06:20.546Z,17.33
2022-11-26T08:08:49.407Z,17.97
2022-11-26T08:11:19.680Z,15.47
2022-11-26T08:13:48.700Z,15.90
2022-11-26T08:16:18.305Z,14.97
2022-11-26T08:18:46.721Z,15.40
2022-11-26T08:21:19.241Z,15.27
2022-11-26T08:23:49.526Z,14.97
2022-11-26T08:26:25.266Z,14.50
2022-11-26T08:29:00.361Z,14.87
2022-11-26T08:31:30.178Z,16.20
2022-11-26T08:33:59.545Z,15.80
2022-11-26T08:36:29.139Z,15.87
2022-11-26T08:38:57.430Z,14.63
2022-11-26T08:41:25.812Z,14.77
2022-11-26T08:44:09.374Z,16.40
2022-11-26T08:46:40.695Z,16.40
2022-11-26T08:49:12.110Z,15.00
2022-11-26T08:51:40.370Z,16.10
2022-11-26T08:54:09.007Z,15.73
2022-11-26T08:56:37.347Z,16.33
2022-11-26T08:59:05.794Z,16.63
2022-11-26T09:01:34.893Z,15.30
2022-11-26T09:04:06.063Z,16.10
2022-11-26T09:06:36.820Z,15.23
2022-11-26T09:09:17.470Z,17.30
2022-11-26T09:11:49.061Z,17.43
2022-11-26T09:14:20.631Z,16.80
2022-11-26T09:16:49.030Z,17.03
2022-11-26T09:19:19.489Z,16.47
2022-11-26T09:21:48.525Z,17.92
2022-11-26T09:24:17.644Z,17.73
2022-11-26T09:26:48.383Z,16.03
2022-11-26T09:29:18.659Z,16.10
2022-11-26T09:32:21.452Z,16.63
2022-11-26T09:34:39.109Z,17.87
2022-11-26T09:37:07.821Z,17.90
2022-11-26T09:39:36.327Z,16.77
2022-11-26T09:42:07.901Z,17.47
2022-11-26T09:44:54.777Z,16.40
2022-11-26T09:47:24.937Z,17.07
2022-11-26T09:50:04.700Z,17.57
2022-11-26T09:52:37.770Z,18.97
2022-11-26T09:55:14.452Z,16.40
2022-11-26T09:57:46.917Z,19.47
2022-11-26T10:00:24.927Z,18.37
2022-11-26T10:02:54.936Z,18.50
2022-11-26T10:05:35.684Z,16.07
2022-11-26T10:08:09.260Z,16.43
2022-11-26T10:10:51.283Z,16.13
2022-11-26T10:13:26.758Z,17.30
2022-11-26T10:16:07.009Z,15.50
2022-11-26T10:18:44.868Z,18.03
2022-11-26T10:21:32.327Z,17.60
2022-11-26T10:24:15.962Z,16.10
2022-11-26T10:26:44.587Z,16.67
2022-11-26T10:29:23.010Z,16.13
2022-11-26T10:31:56.391Z,14.30
2022-11-26T10:34:35.896Z,15.10
2022-11-26T10:37:09.108Z,16.42
2022-11-26T10:39:37.454Z,15.17
2022-11-26T10:42:14.579Z,15.57
2022-11-26T10:44:43.034Z,15.87
2022-11-26T10:47:22.844Z,16.47
2022-11-26T10:49:52.395Z,18.10
2022-11-26T10:52:26.841Z,18.70
2022-11-26T10:55:20.094Z,19.00
2022-11-26T10:57:52.256Z,18.57
2022-11-26T11:00:37.100Z,16.88
2022-11-26T11:03:07.630Z,16.77
2022-11-26T11:05:36.454Z,17.00
2022-11-26T11:08:06.298Z,17.00
2022-11-26T11:10:35.658Z,18.20
2022-11-26T11:13:13.198Z,18.10
2022-11-26T11:15:42.495Z,17.67
2022-11-26T11:18:20.421Z,16.20
2022-11-26T11:20:55.787Z,16.50
2022-11-26T11:23:45.784Z,16.93
2022-11-26T11:26:20.646Z,17.60
2022-11-26T11:28:51.189Z,15.37
2022-11-26T11:31:21.448Z,16.63
2022-11-26T11:33:50.797Z,16.10
2022-11-26T11:36:27.082Z,16.87
2022-11-26T11:38:58.086Z,16.43
2022-11-26T11:41:33.738Z,17.47
2022-11-26T11:44:07.224Z,16.70
2022-11-26T11:47:07.687Z,16.07
2022-11-26T11:49:59.698Z,18.30
2022-11-26T11:52:37.879Z,19.45
2022-11-26T11:55:19.881Z,18.63
2022-11-26T11:58:07.663Z,20.20
2022-11-26T12:00:45.989Z,18.97
2022-11-26T12:03:46.518Z,18.23
2022-11-26T12:06:24.559Z,20.58
2022-11-26T12:09:04.441Z,19.63
2022-11-26T12:11:48.316Z,18.67
2022-11-26T12:14:22.302Z,18.90
2022-11-26T12:16:55.774Z,20.17
2022-11-26T12:19:35.708Z,18.87
2022-11-26T12:22:10.212Z,19.40
2022-11-26T12:24:45.819Z,19.50
2022-11-26T12:27:29.121Z,17.40
2022-11-26T12:30:01.307Z,18.97
2022-11-26T12:32:35.616Z,17.33
2022-11-26T12:35:08.768Z,16.97
2022-11-26T12:37:41.479Z,17.60
2022-11-26T12:40:20.593Z,17.50
2022-11-26T12:42:59.241Z,19.38
2022-11-26T12:45:42.990Z,18.73
2022-11-26T12:48:22.922Z,15.87
2022-11-26T12:50:56.015Z,17.57
2022-11-26T12:53:35.220Z,15.70
2022-11-26T12:56:11.115Z,14.40
2022-11-26T12:58:51.078Z,15.20
2022-11-26T13:01:19.558Z,15.57
2022-11-26T13:03:47.983Z,15.33
2022-11-26T13:06:26.884Z,15.43
2022-11-26T13:09:01.760Z,16.58
2022-11-26T13:11:40.042Z,15.87
2022-11-26T13:14:19.054Z,14.80
2022-11-26T13:16:56.156Z,16.47
2022-11-26T13:19:34.267Z,15.93
2022-11-26T13:22:33.254Z,18.02
2022-11-26T13:25:24.500Z,18.37
2022-11-26T13:28:04.605Z,16.77
2022-11-26T13:30:43.150Z,16.73
2022-11-26T13:33:27.816Z,18.00
2022-11-26T13:36:23.084Z,18.80
2022-11-26T13:39:04.533Z,18.67
2022-11-26T13:42:27.473Z,15.33
2022-11-26T13:45:26.087Z,15.23
2022-11-26T13:48:01.011Z,15.57
2022-11-26T13:50:37.953Z,16.10
2022-11-26T13:53:12.599Z,16.20
2022-11-26T13:55:48.030Z,16.77
2022-11-26T13:58:21.075Z,16.13
2022-11-26T14:00:49.565Z,16.87
2022-11-26T14:03:47.081Z,18.13
2022-11-26T14:06:16.497Z,16.50
2022-11-26T14:08:46.836Z,16.97
2022-11-26T14:11:58.019Z,17.60
2022-11-26T14:14:37.495Z,15.67
2022-11-26T14:17:23.598Z,16.37
2022-11-26T14:20:04.178Z,16.37
2022-11-26T14:22:34.627Z,17.83
2022-11-26T14:25:05.081Z,17.77
2022-11-26T14:27:35.751Z,19.07
2022-11-26T14:30:20.716Z,17.43
2022-11-26T14:33:01.271Z,19.50
2022-11-26T14:35:34.647Z,17.40
2022-11-26T14:38:05.969Z,17.90
2022-11-26T14:40:36.240Z,19.67
2022-11-26T14:43:16.287Z,17.33
2022-11-26T14:45:45.954Z,20.23
2022-11-26T14:48:25.015Z,20.70
2022-11-26T14:50:57.016Z,20.50
2022-11-26T14:53:29.761Z,19.40
2022-11-26T14:55:59.409Z,19.93
2022-11-26T14:58:33.583Z,19.20
2022-11-26T15:01:08.709Z,20.67
2022-11-26T15:03:37.132Z,21.73
2022-11-26T15:06:07.304Z,21.77
2022-11-26T15:08:35.545Z,21.77
2022-11-26T15:11:07.804Z,21.03
2022-11-26T15:13:39.828Z,20.43
2022-11-26T15:16:27.550Z,18.90
2022-11-26T15:18:56.824Z,20.93
2022-11-26T15:21:28.795Z,18.87
2022-11-26T15:23:59.353Z,19.17
2022-11-26T15:26:33.273Z,21.15
2022-11-26T15:29:01.577Z,18.13
2022-11-26T15:31:41.387Z,19.47
2022-11-26T15:34:13.862Z,18.50
2022-11-26T15:36:43.565Z,20.00
2022-11-26T15:39:25.911Z,20.80
2022-11-26T15:41:56.763Z,19.67
2022-11-26T15:44:28.288Z,20.17
2022-11-26T15:46:58.497Z,20.43
2022-11-26T15:49:30.850Z,19.47
2022-11-26T15:52:03.712Z,22.17
2022-11-26T15:54:56.557Z,20.60
2022-11-26T15:57:27.249Z,21.60
2022-11-26T16:00:00.508Z,20.83
2022-11-26T16:02:31.301Z,21.73
2022-11-26T16:05:00.535Z,22.98
2022-11-26T16:07:31.870Z,19.07
2022-11-26T16:10:24.217Z,19.30
2022-11-26T16:13:18.004Z,18.73
2022-11-26T16:15:50.265Z,20.65
2022-11-26T16:18:21.517Z,19.67
2022-11-26T16:20:50.191Z,18.87
2022-11-26T16:23:25.576Z,19.80
2022-11-26T16:26:16.227Z,21.53
2022-11-26T16:28:45.659Z,18.50
2022-11-26T16:31:14.607Z,20.87
2022-11-26T16:33:43.128Z,21.03
2022-11-26T16:36:23.630Z,21.23
2022-11-26T16:38:53.943Z,21.67
2022-11-26T16:41:23.910Z,19.87
2022-11-26T16:43:52.254Z,19.00
2022-11-26T16:46:23.457Z,19.87
2022-11-26T16:48:52.104Z,18.37
2022-11-26T16:51:20.999Z,23.07
2022-11-26T16:53:49.464Z,28.60
2022-11-26T16:56:24.407Z,23.80
2022-11-26T16:58:53.251Z,25.83
2022-11-26T17:01:21.820Z,25.40
2022-11-26T17:03:50.145Z,20.87
2022-11-26T17:06:24.070Z,22.70
2022-11-26T17:08:52.764Z,20.87
2022-11-26T17:11:22.458Z,23.03
2022-11-26T17:13:50.699Z,22.00
2022-11-26T17:16:21.246Z,25.30
2022-11-26T17:18:50.047Z,21.77
2022-11-26T17:21:18.552Z,22.70
2022-11-26T17:23:46.913Z,21.73
2022-11-26T17:26:20.371Z,22.27
2022-11-26T17:28:50.945Z,24.70
2022-11-26T17:31:19.768Z,22.83
2022-11-26T17:33:48.080Z,20.67
2022-11-26T17:36:18.544Z,19.07
2022-11-26T17:38:47.261Z,17.97
2022-11-26T17:41:15.872Z,19.00
2022-11-26T17:43:44.838Z,19.83
2022-11-26T17:46:17.550Z,19.37
2022-11-26T17:48:46.185Z,20.23
2022-11-26T17:51:15.441Z,21.70
2022-11-26T17:53:44.401Z,21.83
2022-11-26T17:56:20.411Z,22.20
2022-11-26T17:58:49.207Z,22.27
2022-11-26T18:01:19.547Z,21.97
2022-11-26T18:03:48.271Z,22.47
2022-11-26T18:06:17.814Z,21.23
2022-11-26T18:08:46.463Z,20.93
2022-11-26T18:11:16.712Z,18.87
2022-11-26T18:13:45.530Z,20.20
2022-11-26T18:16:13.802Z,20.98
2022-11-26T18:18:43.550Z,23.10
2022-11-26T18:21:13.259Z,21.63
2022-11-26T18:23:47.801Z,21.60
2022-11-26T18:26:18.647Z,19.63
2022-11-26T18:28:46.886Z,21.03
2022-11-26T18:31:15.256Z,22.00
2022-11-26T18:33:44.921Z,22.80
2022-11-26T18:36:13.398Z,20.80
2022-11-26T18:38:41.755Z,20.90
2022-11-26T18:41:10.439Z,21.33
2022-11-26T18:43:40.000Z,22.37
2022-11-26T18:46:11.479Z,21.00
2022-11-26T18:48:40.999Z,20.43
2022-11-26T18:51:11.259Z,20.30
2022-11-26T18:53:40.389Z,21.07
2022-11-26T18:56:09.924Z,20.47
2022-11-26T18:58:38.354Z,21.77
2022-11-26T19:01:13.523Z,24.47
2022-11-26T19:03:44.104Z,23.33
2022-11-26T19:06:17.258Z,22.03
2022-11-26T19:08:45.569Z,22.63
2022-11-26T19:11:15.682Z,23.03
2022-11-26T19:13:43.947Z,23.83
2022-11-26T19:16:16.625Z,25.57
2022-11-26T19:18:45.745Z,27.17
2022-11-26T19:21:20.673Z,29.00
2022-11-26T19:23:49.162Z,25.10
2022-11-26T19:26:17.590Z,24.53
2022-11-26T19:28:46.174Z,22.67
2022-11-26T19:31:16.424Z,22.27
2022-11-26T19:33:46.386Z,21.57
2022-11-26T19:36:16.864Z,22.07
2022-11-26T19:38:46.875Z,20.30
2022-11-26T19:41:15.177Z,23.33
2022-11-26T19:43:44.210Z,22.93
2022-11-26T19:46:15.262Z,33.53
2022-11-26T19:48:45.391Z,24.43
2022-11-26T19:51:14.729Z,24.87
2022-11-26T19:53:43.491Z,22.33
2022-11-26T19:56:17.701Z,23.17
2022-11-26T19:58:45.928Z,28.40
2022-11-26T20:01:15.612Z,22.53
2022-11-26T20:03:44.034Z,24.20
2022-11-26T20:06:16.694Z,24.00
2022-11-26T20:08:44.977Z,24.13
2022-11-26T20:11:15.753Z,26.53
2022-11-26T20:13:45.752Z,22.83
2022-11-26T20:16:16.746Z,23.23
2022-11-26T20:18:45.958Z,22.60
2022-11-26T20:21:16.212Z,24.17
2022-11-26T20:23:44.939Z,22.13
2022-11-26T20:26:21.852Z,22.03
2022-11-26T20:28:51.201Z,23.70
2022-11-26T20:31:23.693Z,24.07
2022-11-26T20:33:53.207Z,23.93
2022-11-26T20:36:23.193Z,23.47
2022-11-26T20:38:53.839Z,23.43
2022-11-26T20:41:26.332Z,22.40
2022-11-26T20:43:58.548Z,23.20
2022-11-26T20:46:27.991Z,24.30
2022-11-26T20:48:56.570Z,22.17
2022-11-26T20:51:25.664Z,22.70
2022-11-26T20:53:54.339Z,23.07
2022-11-26T20:56:24.035Z,21.27
2022-11-26T20:58:53.352Z,22.73
2022-11-26T21:01:23.658Z,20.43
2022-11-26T21:03:52.680Z,21.60
2022-11-26T21:06:29.036Z,21.47
2022-11-26T21:08:58.222Z,21.23
2022-11-26T21:11:27.961Z,22.63
2022-11-26T21:13:56.546Z,22.27
2022-11-26T21:16:24.801Z,22.37
2022-11-26T21:18:54.753Z,21.53
2022-11-26T21:21:23.726Z,21.37
2022-11-26T21:23:52.399Z,22.13
2022-11-26T21:26:22.955Z,20.47
2022-11-26T21:28:54.037Z,22.50
2022-11-26T21:31:23.043Z,22.33
2022-11-26T21:33:56.738Z,23.43
2022-11-26T21:36:26.765Z,23.03
2022-11-26T21:38:55.213Z,20.33
2022-11-26T21:41:24.511Z,20.13
2022-11-26T21:43:54.214Z,19.93
2022-11-26T21:46:24.969Z,20.07
2022-11-26T21:48:53.901Z,21.60
2022-11-26T21:51:22.655Z,21.07
2022-11-26T21:53:51.427Z,20.23
2022-11-26T21:56:21.130Z,20.50
2022-11-26T21:58:50.153Z,20.60
2022-11-26T22:01:21.545Z,20.17
2022-11-26T22:03:51.604Z,21.00
2022-11-26T22:06:21.105Z,18.83
2022-11-26T22:08:49.784Z,20.00
2022-11-26T22:11:20.262Z,21.97
2022-11-26T22:13:48.611Z,20.40
2022-11-26T22:16:20.363Z,19.70
2022-11-26T22:18:50.421Z,22.13
2022-11-26T22:21:20.774Z,22.47
2022-11-26T22:23:49.607Z,21.50
2022-11-26T22:26:18.481Z,22.10
2022-11-26T22:28:46.987Z,23.43
2022-11-26T22:31:18.014Z,22.33
2022-11-26T22:33:48.425Z,25.90
2022-11-26T22:36:16.737Z,24.20
2022-11-26T22:38:44.996Z,25.80
2022-11-26T22:41:15.766Z,25.10
2022-11-26T22:43:44.097Z,23.47
2022-11-26T22:46:14.383Z,21.73
2022-11-26T22:48:43.064Z,20.90
2022-11-26T22:51:13.234Z,21.60
2022-11-26T22:53:41.527Z,20.43
2022-11-26T22:56:09.910Z,19.80
2022-11-26T22:58:38.169Z,19.03
2022-11-26T23:01:09.980Z,18.43
2022-11-26T23:03:39.251Z,18.63
2022-11-26T23:06:10.459Z,17.63
2022-11-26T23:08:41.419Z,18.20
2022-11-26T23:11:10.735Z,18.80
2022-11-26T23:13:41.771Z,17.50
2022-11-26T23:16:10.717Z,19.17
2022-11-26T23:18:39.990Z,20.23
2022-11-26T23:21:11.463Z,20.90
2022-11-26T23:23:42.285Z,19.33
2022-11-26T23:26:14.725Z,17.80
2022-11-26T23:28:43.413Z,18.97
2022-11-26T23:31:16.021Z,19.80
2022-11-26T23:33:44.565Z,17.80
2022-11-26T23:36:13.325Z,17.53
2022-11-26T23:38:43.010Z,17.23
2022-11-26T23:41:11.509Z,17.53
2022-11-26T23:43:40.248Z,18.00
2022-11-26T23:46:12.006Z,18.93
2022-11-26T23:48:40.279Z,19.47
2022-11-26T23:51:10.121Z,19.10
2022-11-26T23:53:38.845Z,19.43
2022-11-26T23:56:11.460Z,18.57
2022-11-26T23:58:39.738Z,18.43
